< Typhoon 201008 2010 Season Typhoon 201010 >
Typhoon 201009 (MALOU)
General InformationTrack Information on Google MapsDetailed Wind InformationAccess Analytics MapList of All Images || NewsDisaster Info.WeblogTrackbackTyphoon FrontTwiphoonTyphoon Now!Typhoon ImaginationResourceGoogle EarthGE AnimationAtom FeedGeoJSON
Detalied Best Track (Time Zone = UTC)
Year Month Day Hour Lat. Long. Pressure (hPa) Wind (kt) Class Image Chart
2010 9 1 12 15.6 141.4 1008 0 2 Image Chart
2010 9 1 18 16.9 140.2 1008 0 2 Image Chart
2010 9 2 00 18.0 139.1 1008 0 2 Image Chart
2010 9 2 06 19.5 137.8 1008 0 2 Image Chart
2010 9 2 12 21.1 136.4 1010 0 2 Image Chart
2010 9 2 18 21.9 134.6 1010 0 2 Image Chart
2010 9 3 00 22.5 132.8 1008 0 2 Image Chart
2010 9 3 06 23.2 130.9 1006 0 2 Image Chart
2010 9 3 12 23.8 129.9 1004 0 2 Image Chart
2010 9 3 18 24.4 129.0 1002 0 2 Image Chart
2010 9 4 00 24.7 128.3 1000 35 3 Image Chart
2010 9 4 03 25.0 128.0 1000 35 3 Image Chart
2010 9 4 06 25.4 127.8 1000 35 3 Image Chart
2010 9 4 09 26.0 127.4 1000 35 3 Image Chart
2010 9 4 12 27.0 127.0 998 40 3 Image Chart
2010 9 4 15 27.4 126.8 998 40 3 Image Chart
2010 9 4 18 27.8 126.5 998 40 3 Image Chart
2010 9 5 00 28.7 126.2 996 45 3 Image Chart
2010 9 5 06 29.7 126.2 996 45 3 Image Chart
2010 9 5 12 30.6 126.4 994 45 3 Image Chart
2010 9 5 18 31.4 126.5 992 50 4 Image Chart
2010 9 6 00 31.9 126.6 992 50 4 Image Chart
2010 9 6 06 32.3 126.9 992 50 4 Image Chart
2010 9 6 12 33.0 127.6 994 50 4 Image Chart
2010 9 6 15 33.2 128.0 994 50 4 Image Chart
2010 9 6 18 33.5 128.3 994 50 4 Image Chart
2010 9 6 21 33.8 128.6 994 50 4 Image Chart
2010 9 7 00 34.1 128.8 996 45 3 Image Chart
2010 9 7 02 34.4 129.2 996 45 3 Image Chart
2010 9 7 03 34.6 129.6 996 45 3 Image Chart
2010 9 7 06 34.9 130.5 996 45 3 Image Chart
2010 9 7 09 35.3 131.4 996 45 3 Image Chart
2010 9 7 12 35.6 132.0 996 45 3 Image Chart
2010 9 7 15 35.8 133.2 998 45 3 Image Chart
2010 9 7 18 35.8 134.0 1000 40 3 Image Chart
2010 9 7 21 35.9 134.7 1002 40 3 Image Chart
2010 9 8 00 35.8 135.6 1004 35 3 Image Chart
2010 9 8 02 35.6 136.0 1004 35 3 Image Chart
2010 9 8 03 35.5 136.6 1004 0 2 Image Chart
2010 9 8 06 35.4 138.7 1004 0 2 Image Chart
2010 9 8 12 35.3 140.6 1004 0 2 Image Chart
2010 9 8 18 35.1 141.7 1004 0 2 Image Chart
2010 9 9 00 34.7 142.9 1004 0 2 Image Chart
2010 9 9 06 34.5 143.5 1004 0 2 Image Chart
2010 9 9 12 34.3 144.5 1004 0 2 Image Chart
2010 9 9 18 34.1 145.8 1004 0 2 Image Chart
2010 9 10 00 33.9 147.1 1004 0 2 Image Chart
2010 9 10 06 33.7 148.2 1004 0 2 Image Chart
Japan Meteorological Agency Best Track Data | Correction Date : 2010-11-10
< Typhoon 201008 2010 Season Typhoon 201010 >

Help